Time;durP1;ratioP1;P1;durP2;ratioP2;P2;SDS_P1;SDS_P2;PMS_P1;PMS_P2;Temp;Humidity;BMP_temperature;BMP_pressure;BME280_temperature;BME280_humidity;BME280_pressure;Samples;Min_cycle;Max_cycle;Signal;HPM_P1;HPM_P2
2023/08/07 00:01:47;;;;;;;7.18;5.28;;;;;;;;;;10218735;28;20069;-72
2023/08/07 00:06:43;;;;;;;6.10;4.72;;;;;;;;;;10252776;28;20068;-72
2023/08/07 00:11:40;;;;;;;6.70;5.20;;;;;;;;;;10241748;28;20060;-72
2023/08/07 00:16:36;;;;;;;7.07;5.53;;;;;;;;;;10262352;28;20063;-72
2023/08/07 00:21:35;;;;;;;5.40;4.90;;;;;;;;;;10224781;23;20041;-73
2023/08/07 00:26:32;;;;;;;5.63;4.53;;;;;;;;;;10186858;28;20093;-73
2023/08/07 00:31:31;;;;;;;5.60;5.00;;;;;;;;;;10193091;28;20550;-72
2023/08/07 00:36:34;;;;;;;7.07;4.90;;;;;;;;;;10200165;28;20054;-72
2023/08/07 00:41:30;;;;;;;5.30;4.80;;;;;;;;;;10192327;28;20046;-73
2023/08/07 00:46:28;;;;;;;5.63;4.20;;;;;;;;;;10196626;28;20223;-73
2023/08/07 00:51:24;;;;;;;4.65;4.10;;;;;;;;;;10191946;28;20066;-72
2023/08/07 00:56:21;;;;;;;7.05;5.10;;;;;;;;;;10218412;28;20053;-73
2023/08/07 01:01:17;;;;;;;5.18;4.55;;;;;;;;;;10231778;28;20061;-73
2023/08/07 01:06:14;;;;;;;4.90;4.40;;;;;;;;;;11298065;22;20499;-71
2023/08/07 01:11:20;;;;;;;4.93;4.53;;;;;;;;;;10185785;28;20046;-70
2023/08/07 01:16:20;;;;;;;7.25;4.60;;;;;;;;;;10198378;28;20495;-71
2023/08/07 01:21:18;;;;;;;6.63;4.85;;;;;;;;;;10158759;28;20058;-71
2023/08/07 01:26:15;;;;;;;5.68;4.60;;;;;;;;;;10197880;28;20049;-71
2023/08/07 01:31:20;;;;;;;5.80;5.20;;;;;;;;;;10198511;28;20053;-71
2023/08/07 01:36:17;;;;;;;6.53;5.05;;;;;;;;;;10230974;23;20054;-71
2023/08/07 01:41:14;;;;;;;12.68;5.35;;;;;;;;;;10195811;28;20140;-71
2023/08/07 01:46:10;;;;;;;6.13;5.28;;;;;;;;;;10219576;28;20062;-71
2023/08/07 01:51:07;;;;;;;6.97;5.18;;;;;;;;;;10203319;28;20057;-71
2023/08/07 01:56:03;;;;;;;10.10;4.90;;;;;;;;;;10204041;28;20095;-71
2023/08/07 02:01:06;;;;;;;5.60;5.10;;;;;;;;;;10202522;28;20530;-70
2023/08/07 02:06:02;;;;;;;6.53;5.43;;;;;;;;;;10207830;28;20090;-71
2023/08/07 02:11:01;;;;;;;6.18;5.57;;;;;;;;;;10155593;28;20054;-71
2023/08/07 02:15:57;;;;;;;8.52;5.65;;;;;;;;;;10161897;28;20070;-72
2023/08/07 02:20:53;;;;;;;5.90;5.35;;;;;;;;;;10153500;28;20077;-72
2023/08/07 02:25:51;;;;;;;6.82;5.07;;;;;;;;;;10200045;28;20053;-72
2023/08/07 02:30:48;;;;;;;7.40;5.43;;;;;;;;;;10230487;28;20046;-73
2023/08/07 02:35:45;;;;;;;13.43;5.83;;;;;;;;;;10145312;28;1506997;-73
2023/08/07 02:40:42;;;;;;;7.10;5.57;;;;;;;;;;10223229;28;20053;-72
2023/08/07 02:45:39;;;;;;;6.07;5.47;;;;;;;;;;10198349;28;20048;-72
2023/08/07 02:50:35;;;;;;;7.15;5.57;;;;;;;;;;10197105;28;20491;-73
2023/08/07 02:55:31;;;;;;;6.57;5.05;;;;;;;;;;10195389;28;20045;-73
2023/08/07 03:00:30;;;;;;;5.72;5.22;;;;;;;;;;10210309;28;20058;-73
2023/08/07 03:05:27;;;;;;;5.78;4.97;;;;;;;;;;10193443;28;20041;-72
2023/08/07 03:10:23;;;;;;;6.07;5.47;;;;;;;;;;10235214;28;20502;-73
2023/08/07 03:15:22;;;;;;;5.85;5.10;;;;;;;;;;10203611;28;20132;-73
2023/08/07 03:20:18;;;;;;;5.72;5.22;;;;;;;;;;10233841;28;20053;-73
2023/08/07 03:25:14;;;;;;;6.38;5.63;;;;;;;;;;10198827;28;20061;-73
2023/08/07 03:30:11;;;;;;;10.32;6.40;;;;;;;;;;10222085;28;20419;-73
2023/08/07 03:35:07;;;;;;;6.38;5.60;;;;;;;;;;10187604;28;20275;-72
2023/08/07 03:40:04;;;;;;;7.47;6.78;;;;;;;;;;10209316;28;20050;-74
2023/08/07 03:45:00;;;;;;;5.97;5.45;;;;;;;;;;10209373;28;20410;-72
2023/08/07 03:49:56;;;;;;;7.88;7.18;;;;;;;;;;10197853;23;20066;-73
2023/08/07 03:54:53;;;;;;;7.20;6.50;;;;;;;;;;10182758;28;20065;-73
2023/08/07 03:59:49;;;;;;;6.50;5.90;;;;;;;;;;10210472;28;20562;-72
2023/08/07 04:04:45;;;;;;;7.47;5.82;;;;;;;;;;10181076;28;20153;-73
2023/08/07 04:09:41;;;;;;;6.70;6.10;;;;;;;;;;10187720;28;20524;-72
2023/08/07 04:14:38;;;;;;;7.18;6.47;;;;;;;;;;10178680;28;20454;-72
2023/08/07 04:19:34;;;;;;;7.18;6.47;;;;;;;;;;10210910;22;20096;-72
2023/08/07 04:24:30;;;;;;;8.65;6.97;;;;;;;;;;10186908;28;20050;-72
2023/08/07 04:29:27;;;;;;;9.80;6.43;;;;;;;;;;10152274;28;20050;-73
2023/08/07 04:34:23;;;;;;;9.18;6.78;;;;;;;;;;10155908;28;20042;-72
2023/08/07 04:39:20;;;;;;;9.77;6.80;;;;;;;;;;10210057;23;20611;-72
2023/08/07 04:44:17;;;;;;;9.73;6.82;;;;;;;;;;10206697;28;20473;-72
2023/08/07 04:49:13;;;;;;;10.55;6.68;;;;;;;;;;10239291;28;20046;-72
2023/08/07 04:54:09;;;;;;;9.10;6.97;;;;;;;;;;10227245;28;20529;-73
2023/08/07 04:59:06;;;;;;;8.02;7.20;;;;;;;;;;10240181;28;20045;-72
2023/08/07 05:04:02;;;;;;;11.93;6.93;;;;;;;;;;10213382;28;20108;-73
2023/08/07 05:08:58;;;;;;;9.10;6.85;;;;;;;;;;10226086;28;20057;-73
2023/08/07 05:13:55;;;;;;;11.88;7.47;;;;;;;;;;10205698;28;20061;-72
2023/08/07 05:18:51;;;;;;;11.82;8.35;;;;;;;;;;10221014;28;20061;-72
2023/08/07 05:23:52;;;;;;;12.55;7.47;;;;;;;;;;10222294;28;20514;-72
2023/08/07 05:28:49;;;;;;;9.27;7.47;;;;;;;;;;10236792;28;20077;-72
2023/08/07 05:33:45;;;;;;;10.15;7.40;;;;;;;;;;10237626;28;20084;-72
2023/08/07 05:38:41;;;;;;;9.45;7.40;;;;;;;;;;10238540;28;20096;-72
2023/08/07 05:43:38;;;;;;;10.10;7.20;;;;;;;;;;10237115;28;20045;-72
2023/08/07 05:48:34;;;;;;;11.43;6.90;;;;;;;;;;10238122;28;20051;-72
2023/08/07 05:53:30;;;;;;;12.02;7.43;;;;;;;;;;10218996;28;20053;-72
2023/08/07 05:58:26;;;;;;;11.02;6.82;;;;;;;;;;10219103;28;20308;-72
2023/08/07 06:03:23;;;;;;;13.40;6.53;;;;;;;;;;10211762;28;20057;-72
2023/08/07 06:08:19;;;;;;;9.25;5.85;;;;;;;;;;10219443;28;20141;-72
2023/08/07 06:13:15;;;;;;;8.98;7.07;;;;;;;;;;10204440;28;20395;-72
2023/08/07 06:18:30;;;;;;;13.63;6.50;;;;;;;;;;10230783;28;20513;-72
2023/08/07 06:23:26;;;;;;;11.38;6.65;;;;;;;;;;10199863;28;20642;-72
2023/08/07 06:28:22;;;;;;;13.55;7.22;;;;;;;;;;10195264;28;20542;-72
2023/08/07 06:33:19;;;;;;;9.38;7.13;;;;;;;;;;10197118;28;20058;-72
2023/08/07 06:38:15;;;;;;;9.73;6.60;;;;;;;;;;10195697;28;20058;-72
2023/08/07 06:43:11;;;;;;;10.93;6.55;;;;;;;;;;10196397;28;20065;-72
2023/08/07 06:48:07;;;;;;;10.65;7.25;;;;;;;;;;10235841;28;20447;-71
2023/08/07 06:53:04;;;;;;;12.32;7.75;;;;;;;;;;10219837;28;20062;-73
2023/08/07 06:58:00;;;;;;;13.82;6.32;;;;;;;;;;10235618;28;20510;-72
2023/08/07 07:02:56;;;;;;;16.30;7.22;;;;;;;;;;10216989;28;20050;-72
2023/08/07 07:07:54;;;;;;;13.02;7.38;;;;;;;;;;10233660;28;20056;-72
2023/08/07 07:12:50;;;;;;;17.75;7.30;;;;;;;;;;10213353;28;20084;-72
2023/08/07 07:17:46;;;;;;;15.60;7.07;;;;;;;;;;10232755;28;20054;-72
2023/08/07 07:22:43;;;;;;;16.02;7.68;;;;;;;;;;10194949;28;20073;-72
2023/08/07 07:27:39;;;;;;;14.15;7.03;;;;;;;;;;10222829;28;20041;-73
2023/08/07 07:32:35;;;;;;;16.48;7.35;;;;;;;;;;10194545;28;20057;-72
2023/08/07 07:37:32;;;;;;;12.45;7.45;;;;;;;;;;10221103;28;20054;-72
2023/08/07 07:42:28;;;;;;;10.23;7.07;;;;;;;;;;10193640;28;20157;-72
2023/08/07 07:47:24;;;;;;;12.02;7.03;;;;;;;;;;10208161;28;20061;-72
2023/08/07 07:52:21;;;;;;;13.63;6.60;;;;;;;;;;10193676;28;20542;-72
2023/08/07 07:57:17;;;;;;;10.80;6.55;;;;;;;;;;10182767;28;20076;-72
2023/08/07 08:02:15;;;;;;;14.90;6.85;;;;;;;;;;10193136;28;20100;-72
2023/08/07 08:07:12;;;;;;;19.75;8.15;;;;;;;;;;10229739;28;20049;-72
2023/08/07 08:12:09;;;;;;;14.85;7.63;;;;;;;;;;10222653;28;20692;-72
2023/08/07 08:17:05;;;;;;;15.27;7.22;;;;;;;;;;10231698;23;20061;-72
2023/08/07 08:22:02;;;;;;;14.82;7.15;;;;;;;;;;10203674;28;20053;-73
2023/08/07 08:26:58;;;;;;;14.68;7.78;;;;;;;;;;10224497;28;20593;-72
2023/08/07 08:31:55;;;;;;;18.40;8.80;;;;;;;;;;10231684;28;20052;-72
2023/08/07 08:36:51;;;;;;;13.43;7.28;;;;;;;;;;10229385;28;20050;-72
2023/08/07 08:41:48;;;;;;;15.95;7.32;;;;;;;;;;10192360;28;20070;-71
2023/08/07 08:46:45;;;;;;;16.17;7.82;;;;;;;;;;10203663;28;20050;-71
2023/08/07 08:51:42;;;;;;;12.70;6.97;;;;;;;;;;10233031;28;20052;-71
2023/08/07 08:56:38;;;;;;;19.20;8.07;;;;;;;;;;10209837;28;20062;-71
2023/08/07 09:01:35;;;;;;;10.27;7.63;;;;;;;;;;10191991;28;20084;-71
2023/08/07 09:06:32;;;;;;;17.83;7.88;;;;;;;;;;10191655;28;20730;-71
2023/08/07 09:11:29;;;;;;;19.77;7.32;;;;;;;;;;10192151;28;20073;-71
2023/08/07 09:16:26;;;;;;;17.52;7.43;;;;;;;;;;10214015;28;20061;-71
2023/08/07 09:21:23;;;;;;;13.95;7.88;;;;;;;;;;10214579;28;20064;-71
2023/08/07 09:26:25;;;;;;;16.83;7.97;;;;;;;;;;10218405;28;20049;-71
2023/08/07 09:31:26;;;;;;;14.10;7.47;;;;;;;;;;10212505;28;20395;-71
2023/08/07 09:36:23;;;;;;;18.08;8.13;;;;;;;;;;10221011;28;20096;-71
2023/08/07 09:41:20;;;;;;;11.75;7.65;;;;;;;;;;10202955;28;20100;-71
2023/08/07 09:46:17;;;;;;;10.27;7.15;;;;;;;;;;10221712;28;20051;-71
2023/08/07 09:51:13;;;;;;;13.82;7.53;;;;;;;;;;10198288;28;20511;-71
2023/08/07 09:56:11;;;;;;;9.85;7.05;;;;;;;;;;10204215;28;20049;-71
2023/08/07 10:01:09;;;;;;;13.32;7.43;;;;;;;;;;10238379;28;20053;-71
2023/08/07 10:06:06;;;;;;;11.48;7.03;;;;;;;;;;10234745;28;20049;-72
2023/08/07 10:11:02;;;;;;;10.73;7.32;;;;;;;;;;10237262;28;20084;-72
2023/08/07 10:15:58;;;;;;;11.98;7.72;;;;;;;;;;10220502;28;20080;-72
2023/08/07 10:20:57;;;;;;;13.27;8.60;;;;;;;;;;10235826;28;20410;-72
2023/08/07 10:25:54;;;;;;;15.88;7.78;;;;;;;;;;10236359;28;20049;-71
2023/08/07 10:30:51;;;;;;;12.48;8.20;;;;;;;;;;10216793;28;20128;-72
2023/08/07 10:35:48;;;;;;;14.10;7.80;;;;;;;;;;10218991;28;20049;-72
2023/08/07 10:41:01;;;;;;;13.55;7.55;;;;;;;;;;10211883;28;20553;-71
2023/08/07 10:46:09;;;;;;;10.77;7.72;;;;;;;;;;10218711;28;20146;-71
2023/08/07 10:51:05;;;;;;;15.68;7.78;;;;;;;;;;10196077;28;20050;-71
2023/08/07 10:56:03;;;;;;;15.90;9.23;;;;;;;;;;10218170;28;20056;-71
2023/08/07 11:01:21;;;;;;;15.02;7.43;;;;;;;;;;10233939;28;20419;-72
2023/08/07 11:06:21;;;;;;;11.75;7.68;;;;;;;;;;10215287;28;20046;-71
2023/08/07 11:11:18;;;;;;;12.60;7.40;;;;;;;;;;10195303;28;20515;-72
2023/08/07 11:16:14;;;;;;;12.75;6.88;;;;;;;;;;10220541;28;20049;-71
2023/08/07 11:21:11;;;;;;;12.73;6.57;;;;;;;;;;10234783;28;20103;-71
2023/08/07 11:26:08;;;;;;;10.27;7.20;;;;;;;;;;10223445;28;20119;-71
2023/08/07 11:31:05;;;;;;;10.32;7.00;;;;;;;;;;10234384;28;20565;-71
2023/08/07 11:36:01;;;;;;;9.63;6.47;;;;;;;;;;10220468;28;20054;-72
2023/08/07 11:40:59;;;;;;;11.57;7.53;;;;;;;;;;10229198;28;20439;-71
2023/08/07 11:45:56;;;;;;;9.07;6.78;;;;;;;;;;10216975;28;20050;-71
2023/08/07 11:50:53;;;;;;;12.20;6.75;;;;;;;;;;10208946;28;20054;-71
2023/08/07 11:55:55;;;;;;;9.52;6.15;;;;;;;;;;10213682;28;20372;-71
2023/08/07 12:00:52;;;;;;;12.48;6.13;;;;;;;;;;10193888;28;20046;-71
2023/08/07 12:05:49;;;;;;;10.30;7.25;;;;;;;;;;10177237;28;20125;-71
2023/08/07 12:10:48;;;;;;;12.40;7.07;;;;;;;;;;10193149;28;20050;-71
2023/08/07 12:21:13;;;;;;;10.05;6.97;;;;;;;;;;10230837;28;20038;-71
2023/08/07 12:26:10;;;;;;;7.60;6.88;;;;;;;;;;10256685;28;20045;-71
2023/08/07 12:31:06;;;;;;;12.07;7.38;;;;;;;;;;10273952;28;20053;-70
2023/08/07 12:36:03;;;;;;;10.57;6.82;;;;;;;;;;10264934;28;20052;-70
2023/08/07 12:40:59;;;;;;;13.02;7.47;;;;;;;;;;10273924;28;20131;-70
2023/08/07 12:45:56;;;;;;;13.82;8.23;;;;;;;;;;10240073;28;20045;-71
2023/08/07 12:51:12;;;;;;;14.90;7.65;;;;;;;;;;10269629;28;20053;-71
2023/08/07 12:56:08;;;;;;;10.52;6.72;;;;;;;;;;10242645;28;20052;-71
2023/08/07 13:01:05;;;;;;;12.05;7.35;;;;;;;;;;10264951;28;20038;-72
2023/08/07 13:06:05;;;;;;;10.05;7.13;;;;;;;;;;10244606;28;20045;-72
2023/08/07 13:11:01;;;;;;;16.38;8.00;;;;;;;;;;10234974;28;20046;-72
2023/08/07 13:15:58;;;;;;;10.60;7.55;;;;;;;;;;10247382;28;20049;-72
2023/08/07 13:20:54;;;;;;;11.00;8.02;;;;;;;;;;10234317;28;20050;-72
2023/08/07 13:25:50;;;;;;;11.85;7.90;;;;;;;;;;10225425;28;20091;-72
2023/08/07 13:30:47;;;;;;;12.20;7.97;;;;;;;;;;10199119;28;20042;-72
2023/08/07 13:35:43;;;;;;;19.45;8.80;;;;;;;;;;10220713;28;20435;-72
2023/08/07 13:40:39;;;;;;;11.82;7.88;;;;;;;;;;10197989;28;20046;-72
2023/08/07 13:45:36;;;;;;;13.52;8.45;;;;;;;;;;10190546;28;20504;-72
2023/08/07 13:50:33;;;;;;;17.08;9.43;;;;;;;;;;10198517;28;20504;-72
2023/08/07 13:55:29;;;;;;;11.80;8.75;;;;;;;;;;10220771;28;20045;-72
2023/08/07 14:00:26;;;;;;;15.05;9.05;;;;;;;;;;10272128;28;20046;-72
2023/08/07 14:05:22;;;;;;;16.02;7.78;;;;;;;;;;10235803;28;20092;-72
2023/08/07 14:10:18;;;;;;;11.20;7.63;;;;;;;;;;10250974;28;20065;-72
2023/08/07 14:15:15;;;;;;;16.77;8.15;;;;;;;;;;10232196;28;20053;-72
2023/08/07 14:20:11;;;;;;;13.45;7.65;;;;;;;;;;10231892;28;20113;-72
2023/08/07 14:25:08;;;;;;;11.63;7.32;;;;;;;;;;10230676;28;20465;-72
2023/08/07 14:30:04;;;;;;;12.50;8.10;;;;;;;;;;10201382;28;20058;-72
2023/08/07 14:35:01;;;;;;;9.80;7.55;;;;;;;;;;10211629;28;20530;-71
2023/08/07 14:39:57;;;;;;;14.43;8.75;;;;;;;;;;10236570;28;20200;-71
2023/08/07 14:44:53;;;;;;;12.98;8.00;;;;;;;;;;10241761;28;20041;-72
2023/08/07 14:49:50;;;;;;;16.50;8.85;;;;;;;;;;10276489;28;20118;-71
2023/08/07 14:54:46;;;;;;;15.15;7.95;;;;;;;;;;10242880;28;20052;-71
2023/08/07 14:59:42;;;;;;;11.38;8.43;;;;;;;;;;10249655;28;20116;-72
2023/08/07 15:04:39;;;;;;;16.42;9.15;;;;;;;;;;10219307;28;20115;-73
2023/08/07 15:09:35;;;;;;;13.90;9.23;;;;;;;;;;10275073;28;20498;-73
2023/08/07 15:14:31;;;;;;;13.68;9.20;;;;;;;;;;10237353;28;20073;-73
2023/08/07 15:25:18;;;;;;;16.27;9.75;;;;;;;;;;10202525;28;20061;-72
2023/08/07 15:30:15;;;;;;;16.27;9.00;;;;;;;;;;10222426;28;20519;-72
2023/08/07 15:35:11;;;;;;;17.48;8.35;;;;;;;;;;10229350;28;20115;-72
2023/08/07 15:40:08;;;;;;;14.45;8.95;;;;;;;;;;10309403;22;20064;-72
2023/08/07 15:45:05;;;;;;;16.13;8.82;;;;;;;;;;10232321;28;20045;-72
2023/08/07 15:50:01;;;;;;;13.77;8.90;;;;;;;;;;10247333;23;20061;-72
2023/08/07 15:54:57;;;;;;;13.70;8.82;;;;;;;;;;10212803;28;20087;-72
2023/08/07 16:05:03;;;;;;;14.65;10.05;;;;;;;;;;10206188;28;20686;-72
2023/08/07 16:10:00;;;;;;;15.40;9.05;;;;;;;;;;10197121;28;20406;-73
2023/08/07 16:14:58;;;;;;;16.70;9.25;;;;;;;;;;10232908;28;20074;-72
2023/08/07 16:19:55;;;;;;;12.50;7.53;;;;;;;;;;10217106;28;20153;-73
2023/08/07 16:24:51;;;;;;;15.70;8.05;;;;;;;;;;10207454;28;20045;-72
2023/08/07 16:30:10;;;;;;;14.93;8.10;;;;;;;;;;10282384;23;20057;-72
2023/08/07 16:35:33;;;;;;;13.20;7.13;;;;;;;;;;10208936;28;20565;-72
2023/08/07 16:41:03;;;;;;;17.27;7.18;;;;;;;;;;10158919;28;20133;-72
2023/08/07 16:46:03;;;;;;;17.58;7.53;;;;;;;;;;10160711;28;20496;-72
2023/08/07 16:50:59;;;;;;;11.05;7.70;;;;;;;;;;10159950;28;20137;-72
2023/08/07 16:56:10;;;;;;;11.43;7.35;;;;;;;;;;10170658;28;20096;-72
2023/08/07 17:01:07;;;;;;;17.35;7.90;;;;;;;;;;10200348;28;20053;-72
2023/08/07 17:06:03;;;;;;;18.45;7.78;;;;;;;;;;10170299;28;20134;-72
2023/08/07 17:10:59;;;;;;;14.50;7.75;;;;;;;;;;10143161;28;20496;-72
2023/08/07 17:15:56;;;;;;;16.65;7.57;;;;;;;;;;10182454;28;20049;-71
2023/08/07 17:20:52;;;;;;;18.65;7.35;;;;;;;;;;10182865;28;20624;-72
2023/08/07 17:25:49;;;;;;;13.48;7.90;;;;;;;;;;10181414;28;20072;-71
2023/08/07 17:30:45;;;;;;;12.52;6.50;;;;;;;;;;10197425;28;20076;-72
2023/08/07 17:35:41;;;;;;;12.18;7.15;;;;;;;;;;10197186;28;20384;-71
2023/08/07 17:40:38;;;;;;;14.40;7.80;;;;;;;;;;10198414;28;20042;-72
2023/08/07 17:45:34;;;;;;;15.73;7.90;;;;;;;;;;10196952;28;20125;-72
2023/08/07 17:50:31;;;;;;;11.40;6.93;;;;;;;;;;10197913;28;20041;-72
2023/08/07 17:55:27;;;;;;;18.73;8.07;;;;;;;;;;10193449;28;20133;-73
2023/08/07 18:00:24;;;;;;;10.23;7.15;;;;;;;;;;10180006;28;20180;-72
2023/08/07 18:05:21;;;;;;;13.48;8.55;;;;;;;;;;10189691;28;20050;-73
2023/08/07 18:10:17;;;;;;;8.70;7.78;;;;;;;;;;10198083;28;20085;-72
2023/08/07 18:15:13;;;;;;;11.77;8.07;;;;;;;;;;10164604;28;20101;-72
2023/08/07 18:20:27;;;;;;;10.70;7.15;;;;;;;;;;10202522;23;20064;-72
2023/08/07 18:25:43;;;;;;;10.23;6.80;;;;;;;;;;10195699;28;20046;-72
2023/08/07 18:30:42;;;;;;;11.05;9.27;;;;;;;;;;10187702;28;20053;-72
2023/08/07 18:35:40;;;;;;;13.93;9.43;;;;;;;;;;10160767;28;20519;-73
2023/08/07 18:40:37;;;;;;;12.68;9.20;;;;;;;;;;10175535;28;20062;-73
2023/08/07 18:45:33;;;;;;;17.75;9.40;;;;;;;;;;10175442;28;20041;-73
2023/08/07 18:56:32;;;;;;;18.25;9.73;;;;;;;;;;10209284;28;20053;-73
2023/08/07 19:02:01;;;;;;;13.32;9.63;;;;;;;;;;10092128;28;20520;-74
2023/08/07 19:13:01;;;;;;;18.30;10.63;;;;;;;;;;10095824;28;20054;-74
2023/08/07 19:18:47;;;;;;;14.48;9.60;;;;;;;;;;10113386;28;20043;-74
2023/08/07 19:41:03;;;;;;;13.55;9.57;;;;;;;;;;10197833;28;20042;-73
2023/08/07 19:45:59;;;;;;;12.20;9.40;;;;;;;;;;10192919;28;20065;-73
2023/08/07 19:51:15;;;;;;;15.07;9.85;;;;;;;;;;10263572;28;20046;-74
2023/08/07 19:56:26;;;;;;;14.25;9.40;;;;;;;;;;10218206;28;20526;-73
2023/08/07 20:01:32;;;;;;;12.85;8.40;;;;;;;;;;10227082;28;20052;-74
2023/08/07 20:06:29;;;;;;;16.30;9.68;;;;;;;;;;10249033;28;20049;-73
2023/08/07 20:11:52;;;;;;;14.43;10.23;;;;;;;;;;10236205;28;20068;-73
2023/08/07 20:16:49;;;;;;;12.43;9.80;;;;;;;;;;10231673;28;20085;-73
2023/08/07 20:21:50;;;;;;;16.25;10.15;;;;;;;;;;10192751;28;20057;-72
2023/08/07 20:26:48;;;;;;;14.02;10.40;;;;;;;;;;10220901;28;20515;-72
2023/08/07 20:31:45;;;;;;;13.00;8.98;;;;;;;;;;10192383;28;20056;-72
2023/08/07 20:36:41;;;;;;;14.07;9.80;;;;;;;;;;10216777;28;20045;-73
2023/08/07 20:41:37;;;;;;;15.05;9.25;;;;;;;;;;10175558;28;20104;-73
2023/08/07 20:46:33;;;;;;;18.80;10.25;;;;;;;;;;10250552;28;20053;-72
2023/08/07 20:51:31;;;;;;;13.98;8.07;;;;;;;;;;10273111;28;20049;-72
2023/08/07 20:56:28;;;;;;;13.63;8.82;;;;;;;;;;10264467;28;20064;-72
2023/08/07 21:01:24;;;;;;;13.57;8.80;;;;;;;;;;10272515;28;20049;-72
2023/08/07 21:06:20;;;;;;;9.73;8.40;;;;;;;;;;10250423;28;20053;-72
2023/08/07 21:11:17;;;;;;;9.80;7.35;;;;;;;;;;10248776;28;20069;-72
2023/08/07 21:16:15;;;;;;;12.60;8.35;;;;;;;;;;10243729;28;20072;-72
2023/08/07 21:21:12;;;;;;;10.13;7.03;;;;;;;;;;10227474;28;20421;-71
2023/08/07 21:26:09;;;;;;;14.13;6.43;;;;;;;;;;10244643;28;20518;-71
2023/08/07 21:31:06;;;;;;;11.95;6.18;;;;;;;;;;10243479;28;20046;-71
2023/08/07 21:36:03;;;;;;;11.75;5.53;;;;;;;;;;10258568;28;20088;-72
2023/08/07 21:40:59;;;;;;;12.20;7.07;;;;;;;;;;10198391;28;20042;-71
2023/08/07 21:45:56;;;;;;;11.40;6.20;;;;;;;;;;10202763;28;20054;-71
2023/08/07 21:50:52;;;;;;;8.40;6.60;;;;;;;;;;10198598;28;20104;-71
2023/08/07 21:55:51;;;;;;;11.35;6.72;;;;;;;;;;10243193;28;20087;-71
2023/08/07 22:00:48;;;;;;;8.60;6.57;;;;;;;;;;10278155;28;20067;-71
2023/08/07 22:05:44;;;;;;;8.48;6.03;;;;;;;;;;10243176;28;20045;-71
2023/08/07 22:10:41;;;;;;;8.95;6.63;;;;;;;;;;10246975;28;20092;-71
2023/08/07 22:15:37;;;;;;;7.78;5.63;;;;;;;;;;10239087;28;20545;-71
2023/08/07 22:20:33;;;;;;;8.65;7.00;;;;;;;;;;10224972;28;20046;-71
2023/08/07 22:25:30;;;;;;;13.23;6.82;;;;;;;;;;10236279;28;20048;-72
2023/08/07 22:30:26;;;;;;;12.52;7.53;;;;;;;;;;10203127;28;20054;-70
2023/08/07 22:35:23;;;;;;;8.50;6.35;;;;;;;;;;10229809;28;20052;-71
2023/08/07 22:40:20;;;;;;;8.20;6.18;;;;;;;;;;10194949;28;20507;-71
2023/08/07 22:45:16;;;;;;;12.82;6.72;;;;;;;;;;10227253;28;20062;-71
2023/08/07 22:50:12;;;;;;;9.50;6.50;;;;;;;;;;10236580;28;20054;-71
2023/08/07 22:55:09;;;;;;;10.85;6.53;;;;;;;;;;10233005;28;20064;-71
2023/08/07 23:00:07;;;;;;;8.50;6.60;;;;;;;;;;10257071;22;20530;-71
2023/08/07 23:05:03;;;;;;;8.63;6.28;;;;;;;;;;10245972;28;20506;-72
2023/08/07 23:09:59;;;;;;;10.38;6.57;;;;;;;;;;10275787;28;20053;-71
2023/08/07 23:14:56;;;;;;;8.23;6.40;;;;;;;;;;10231146;28;20514;-72
2023/08/07 23:19:52;;;;;;;10.13;7.20;;;;;;;;;;10264249;28;20088;-70
2023/08/07 23:24:48;;;;;;;8.93;6.97;;;;;;;;;;10223253;28;20045;-71
2023/08/07 23:29:44;;;;;;;15.02;6.78;;;;;;;;;;10245181;22;20054;-71
2023/08/07 23:34:41;;;;;;;12.30;7.80;;;;;;;;;;10220629;28;20110;-71
2023/08/07 23:39:37;;;;;;;8.65;7.82;;;;;;;;;;10232018;28;20058;-71
2023/08/07 23:44:33;;;;;;;9.13;7.15;;;;;;;;;;10218435;28;20107;-71
2023/08/07 23:49:30;;;;;;;14.75;8.00;;;;;;;;;;10202918;28;20046;-71
2023/08/07 23:54:26;;;;;;;10.05;7.30;;;;;;;;;;10216414;28;20048;-71
2023/08/07 23:59:22;;;;;;;10.38;7.20;;;;;;;;;;10191436;28;20104;-71
